logo
Rechercher aéroport 
image banner adimage banner adimage banner ad
image banner ad

MRLI - La Ligia

Situé à Parrita, Costa Rica

ICAO - MRLI, IATA -

Données fournies par Airmate  

Information générale

Coordonnées: N9°30'32" W84°19'60"
Élévation : 16 feet MSL.
 
Voir autres Aéroports à Puntarenas

Données opérationnelles

Special qualification required
Heure actuelle UTC:
Heure actuelle locale:
Météo à : MRPV - Tobias Bolanos Intl ( 54 km )
METAR: MRPV 251700Z 09007KT CAVOK 29/15 A3006 NOSIG
Voir NOTAMs / SUP AIP / TFR affectant cet aéroport [VIEW]
Fréquences de communication: [VIEW]

Pistes:

Identifiant RWYQFULongueur (ft)Largeur (ft)SurfaceLDA (ft)
02318233UNK
20318233UNK

Coordonnées de l'aéroport

Adresse: Parrita Costa Rica

Vue satellite de MRLI